createdAt,value
2017-11-03T04:44:54.497Z,2.83
2017-11-03T04:47:21.303Z,1.77
2017-11-03T04:49:48.092Z,2.60
2017-11-03T04:52:14.906Z,1.90
2017-11-03T04:54:41.727Z,1.73
2017-11-03T04:57:08.537Z,2.40
2017-11-03T04:59:35.354Z,2.40
2017-11-03T05:02:02.178Z,1.97
2017-11-03T05:04:28.992Z,1.90
2017-11-03T05:06:55.877Z,2.23
2017-11-03T05:09:22.888Z,2.90
2017-11-03T05:11:49.671Z,2.83
2017-11-03T05:14:16.537Z,2.23
2017-11-03T05:16:43.322Z,2.07
2017-11-03T05:19:10.200Z,1.63
2017-11-03T05:21:37.236Z,1.30
2017-11-03T05:24:04.055Z,2.03
2017-11-03T05:26:30.867Z,2.90
2017-11-03T05:28:57.713Z,4.27
2017-11-03T05:31:24.519Z,2.63
2017-11-03T05:33:51.322Z,2.83
2017-11-03T05:36:18.163Z,3.13
2017-11-03T05:38:45.000Z,2.40
2017-11-03T05:41:11.782Z,1.90
2017-11-03T05:43:38.602Z,2.37
2017-11-03T05:46:05.358Z,2.53
2017-11-03T05:48:32.304Z,2.60
2017-11-03T05:50:59.128Z,3.27
2017-11-03T05:53:25.959Z,3.00
2017-11-03T05:55:52.759Z,4.23
2017-11-03T05:58:19.565Z,2.07
2017-11-03T06:00:46.386Z,2.30
2017-11-03T06:03:13.222Z,2.90
2017-11-03T06:05:40.070Z,2.67
2017-11-03T06:08:06.828Z,7.50
2017-11-03T06:10:33.615Z,13.70
2017-11-03T06:13:00.417Z,3.50
2017-11-03T06:15:27.270Z,3.13
2017-11-03T06:17:54.108Z,3.53
2017-11-03T06:20:20.974Z,2.70
2017-11-03T06:22:47.758Z,2.53
2017-11-03T06:25:14.534Z,2.13
2017-11-03T06:27:41.352Z,2.40
2017-11-03T06:30:08.137Z,2.80
2017-11-03T06:32:34.914Z,2.80
2017-11-03T06:35:01.736Z,2.33
2017-11-03T06:37:28.495Z,2.63
2017-11-03T06:39:55.300Z,2.33
2017-11-03T06:42:22.113Z,2.27
2017-11-03T06:44:48.929Z,6.43
2017-11-03T06:47:15.766Z,2.77
2017-11-03T06:49:42.604Z,3.10
2017-11-03T06:52:09.635Z,3.80
2017-11-03T06:54:36.468Z,3.00
2017-11-03T06:57:03.305Z,2.70
2017-11-03T06:59:30.081Z,3.60
2017-11-03T07:01:56.959Z,2.67
2017-11-03T07:04:23.770Z,2.70
2017-11-03T07:06:50.604Z,4.43
2017-11-03T07:09:17.449Z,2.47
2017-11-03T07:11:44.291Z,2.57
2017-11-03T07:14:11.141Z,2.70
2017-11-03T07:16:37.976Z,2.50
2017-11-03T07:19:04.797Z,2.73
2017-11-03T07:21:31.587Z,2.80
2017-11-03T07:23:58.383Z,2.50
2017-11-03T07:26:25.463Z,1.70
2017-11-03T07:28:52.240Z,4.47
2017-11-03T07:31:19.069Z,3.50
2017-11-03T07:33:45.958Z,3.50
2017-11-03T07:36:12.753Z,3.43
2017-11-03T07:38:39.593Z,2.80
2017-11-03T07:41:06.444Z,3.57
2017-11-03T07:43:33.266Z,2.50
2017-11-03T07:46:01.067Z,3.40
2017-11-03T07:48:56.726Z,2.97
2017-11-03T07:51:23.816Z,2.03
2017-11-03T07:53:53.702Z,3.73
2017-11-03T07:56:24.021Z,4.20
2017-11-03T07:58:52.076Z,3.30
2017-11-03T08:01:18.887Z,3.60
2017-11-03T08:03:57.638Z,2.73
2017-11-03T08:08:59.788Z,4.90
2017-11-03T08:11:30.999Z,3.77
2017-11-03T08:14:14.409Z,4.53
2017-11-03T08:19:21.095Z,3.17
2017-11-03T08:21:50.084Z,2.83
2017-11-03T08:24:17.585Z,3.30
2017-11-03T08:26:52.893Z,4.03
2017-11-03T08:29:22.017Z,11.00
2017-11-03T08:32:04.445Z,14.27
2017-11-03T08:34:31.274Z,3.37
2017-11-03T08:36:58.103Z,3.13
2017-11-03T08:39:24.930Z,2.40
2017-11-03T08:41:51.752Z,3.33
2017-11-03T08:44:18.578Z,3.20
2017-11-03T08:46:45.402Z,2.70
2017-11-03T08:49:12.238Z,2.27
2017-11-03T08:51:39.150Z,3.23
2017-11-03T08:54:05.965Z,3.77
2017-11-03T08:56:32.767Z,5.70
2017-11-03T08:58:59.556Z,2.90
2017-11-03T09:01:26.362Z,3.07
2017-11-03T09:03:53.216Z,3.10
2017-11-03T09:06:20.040Z,3.07
2017-11-03T09:08:46.904Z,3.50
2017-11-03T09:11:13.703Z,3.80
2017-11-03T09:13:40.499Z,4.10
2017-11-03T09:16:07.362Z,4.37
2017-11-03T09:18:34.146Z,3.67
2017-11-03T09:21:00.932Z,3.67
2017-11-03T09:23:27.790Z,3.13
2017-11-03T09:25:54.829Z,3.60
2017-11-03T09:28:21.663Z,5.43
2017-11-03T09:30:48.506Z,4.90
2017-11-03T09:33:15.351Z,3.20
2017-11-03T09:35:42.133Z,5.13
2017-11-03T09:38:08.950Z,5.93
2017-11-03T09:40:35.772Z,13.83
2017-11-03T09:43:02.573Z,6.13
2017-11-03T09:45:29.408Z,6.23
2017-11-03T09:47:56.171Z,5.50
2017-11-03T09:50:22.942Z,5.93
2017-11-03T09:52:49.785Z,6.40
2017-11-03T09:55:16.596Z,7.43
2017-11-03T09:57:43.397Z,7.80
2017-11-03T10:00:10.226Z,8.00
2017-11-03T10:02:37.005Z,6.97
2017-11-03T10:05:03.788Z,6.90
2017-11-03T10:07:30.602Z,7.20
2017-11-03T10:09:57.402Z,7.97
2017-11-03T10:12:24.269Z,7.20
2017-11-03T10:14:51.084Z,7.00
2017-11-03T10:17:17.908Z,9.33
2017-11-03T10:19:44.720Z,8.33
2017-11-03T10:22:11.564Z,7.97
2017-11-03T10:24:38.430Z,6.67
2017-11-03T10:27:05.282Z,7.30
2017-11-03T10:29:32.162Z,8.20
2017-11-03T10:31:58.978Z,7.80
2017-11-03T10:34:25.808Z,7.37
2017-11-03T10:36:52.618Z,9.77
2017-11-03T10:39:19.429Z,8.43
2017-11-03T10:41:46.205Z,9.70
2017-11-03T10:44:13.047Z,9.53
2017-11-03T10:46:39.827Z,9.00
2017-11-03T10:49:06.600Z,8.20
2017-11-03T10:51:33.467Z,9.57
2017-11-03T10:54:00.289Z,9.80
2017-11-03T10:56:27.077Z,9.30
2017-11-03T10:58:53.928Z,10.10
2017-11-03T11:01:20.740Z,9.43
2017-11-03T11:03:47.517Z,9.50
2017-11-03T11:06:14.361Z,9.10
2017-11-03T11:08:41.202Z,9.63
2017-11-03T11:11:08.068Z,8.60
2017-11-03T11:13:34.922Z,9.70
2017-11-03T11:16:02.671Z,9.53
2017-11-03T11:18:30.165Z,9.70
2017-11-03T11:20:57.019Z,9.90
2017-11-03T11:23:23.849Z,9.40
2017-11-03T11:25:50.671Z,9.40
2017-11-03T11:28:17.529Z,9.40
2017-11-03T11:30:44.417Z,9.73
2017-11-03T11:33:11.292Z,10.23
2017-11-03T11:35:38.132Z,9.63
2017-11-03T11:38:04.966Z,9.87
2017-11-03T11:40:31.792Z,9.70
2017-11-03T11:42:58.628Z,9.40
2017-11-03T11:45:25.601Z,9.37
2017-11-03T11:47:52.441Z,9.70
2017-11-03T11:50:19.289Z,10.87
2017-11-03T11:52:46.128Z,10.50
2017-11-03T11:55:12.960Z,10.13
2017-11-03T11:57:39.825Z,10.60
2017-11-03T12:00:06.909Z,10.30
2017-11-03T12:02:33.737Z,11.13
2017-11-03T12:05:00.592Z,11.50
2017-11-03T12:07:27.395Z,10.50
2017-11-03T12:09:54.214Z,12.13
2017-11-03T12:12:21.071Z,9.40
2017-11-03T12:14:47.887Z,10.77
2017-11-03T12:17:14.766Z,10.70
2017-11-03T12:19:41.635Z,11.50
2017-11-03T12:22:08.442Z,10.83
2017-11-03T12:24:35.285Z,11.53
2017-11-03T12:27:02.126Z,11.63
2017-11-03T12:29:28.895Z,13.00
2017-11-03T12:31:55.790Z,13.90
2017-11-03T12:34:22.650Z,12.20
2017-11-03T12:36:50.513Z,13.87
2017-11-03T12:39:17.424Z,12.40
2017-11-03T12:41:44.240Z,13.83
2017-11-03T12:44:11.295Z,12.67
2017-11-03T12:46:38.108Z,14.33
2017-11-03T12:49:04.979Z,12.20
2017-11-03T12:51:31.809Z,13.40
2017-11-03T12:53:58.622Z,12.37
2017-11-03T12:56:25.482Z,11.50
2017-11-03T12:58:52.298Z,11.90
2017-11-03T13:01:19.111Z,12.33
2017-11-03T13:03:45.947Z,10.20
2017-11-03T13:06:12.794Z,9.87
2017-11-03T13:08:39.617Z,10.03
2017-11-03T13:11:06.455Z,10.00
2017-11-03T13:13:33.280Z,10.50
2017-11-03T13:16:00.082Z,9.20
2017-11-03T13:18:26.956Z,9.53
2017-11-03T13:20:53.744Z,9.30
2017-11-03T13:23:20.568Z,8.53
2017-11-03T13:25:47.479Z,9.63
2017-11-03T13:28:14.324Z,10.20
2017-11-03T13:30:41.143Z,9.00
2017-11-03T13:33:08.022Z,8.50
2017-11-03T13:35:34.848Z,10.10
2017-11-03T13:38:02.290Z,9.60
2017-11-03T13:40:29.124Z,9.67
2017-11-03T13:42:55.952Z,10.43
2017-11-03T13:45:23.200Z,7.90
2017-11-03T13:47:50.046Z,11.30
2017-11-03T13:50:16.846Z,8.73
2017-11-03T13:52:43.730Z,8.67
2017-11-03T13:55:10.629Z,8.60
2017-11-03T13:57:37.479Z,8.10
2017-11-03T14:00:04.515Z,8.60
2017-11-03T14:02:31.342Z,8.73
2017-11-03T14:04:58.154Z,7.57
2017-11-03T14:07:25.005Z,8.67
2017-11-03T14:09:52.099Z,7.70
2017-11-03T14:12:18.955Z,7.53
2017-11-03T14:14:45.765Z,7.30
2017-11-03T14:17:12.599Z,6.00
2017-11-03T14:19:39.375Z,7.70
2017-11-03T14:22:06.192Z,7.20
2017-11-03T14:24:33.009Z,6.40
2017-11-03T14:26:59.851Z,7.53
2017-11-03T14:29:26.658Z,6.50
2017-11-03T14:31:53.480Z,7.30
2017-11-03T14:34:21.450Z,6.70
2017-11-03T14:36:48.278Z,6.97
2017-11-03T14:39:15.121Z,5.87
2017-11-03T14:41:41.904Z,7.40
2017-11-03T14:44:08.709Z,6.70
2017-11-03T14:46:35.605Z,7.17
2017-11-03T14:49:02.394Z,8.30
2017-11-03T14:51:29.231Z,7.13
2017-11-03T14:53:56.076Z,7.20
2017-11-03T14:56:22.896Z,7.40
2017-11-03T14:58:49.721Z,7.87
2017-11-03T15:01:16.513Z,7.20
2017-11-03T15:03:43.309Z,7.50
2017-11-03T15:06:10.064Z,8.27
2017-11-03T15:08:36.898Z,6.70
2017-11-03T15:11:03.683Z,9.37
2017-11-03T15:13:30.482Z,6.70
2017-11-03T15:15:57.312Z,8.63
2017-11-03T15:18:24.124Z,7.73
2017-11-03T15:20:50.946Z,7.63
2017-11-03T15:23:17.787Z,9.47
2017-11-03T15:25:44.639Z,8.70
2017-11-03T15:28:11.433Z,9.17
2017-11-03T15:30:38.327Z,8.77
2017-11-03T15:33:05.155Z,9.10
2017-11-03T15:35:31.999Z,8.20
2017-11-03T15:37:58.851Z,9.70
2017-11-03T15:40:25.679Z,9.10
2017-11-03T15:42:52.542Z,7.50
2017-11-03T15:45:19.430Z,9.73
2017-11-03T15:47:46.605Z,8.57
2017-11-03T15:50:13.670Z,8.97
2017-11-03T15:52:40.520Z,9.73
2017-11-03T15:55:07.359Z,9.37
2017-11-03T15:57:34.199Z,8.67
2017-11-03T16:00:01.040Z,10.30
2017-11-03T16:02:28.691Z,9.20
2017-11-03T16:04:55.583Z,9.07
2017-11-03T16:07:22.450Z,8.67
2017-11-03T16:09:49.301Z,9.83
2017-11-03T16:12:16.067Z,9.83
2017-11-03T16:14:42.897Z,8.83
2017-11-03T16:17:09.700Z,8.20
2017-11-03T16:19:36.504Z,9.23
2017-11-03T16:22:03.373Z,9.23
2017-11-03T16:24:30.929Z,9.33
2017-11-03T16:26:57.705Z,11.00
2017-11-03T16:29:24.527Z,9.73
2017-11-03T16:31:51.435Z,9.17
2017-11-03T16:34:18.229Z,9.00
2017-11-03T16:36:45.060Z,9.07
2017-11-03T16:39:11.831Z,9.67
2017-11-03T16:41:38.673Z,9.73
2017-11-03T16:44:05.482Z,11.73
2017-11-03T16:46:32.264Z,9.97
2017-11-03T16:48:59.019Z,9.30
2017-11-03T16:51:25.883Z,12.97
2017-11-03T16:53:52.686Z,10.53
2017-11-03T16:56:19.512Z,9.50
2017-11-03T16:58:46.410Z,10.90
2017-11-03T17:01:13.226Z,11.27
2017-11-03T17:03:40.052Z,11.20
2017-11-03T17:06:06.920Z,10.53
2017-11-03T17:08:33.701Z,9.30
2017-11-03T17:11:00.525Z,10.50
2017-11-03T17:13:27.419Z,10.77
2017-11-03T17:15:54.214Z,9.63
2017-11-03T17:18:21.025Z,10.50
2017-11-03T17:20:47.966Z,11.20
2017-11-03T17:23:14.835Z,10.70
2017-11-03T17:25:41.700Z,10.07
2017-11-03T17:28:08.629Z,11.43
2017-11-03T17:30:35.470Z,10.40
2017-11-03T17:33:02.285Z,11.03
2017-11-03T17:35:29.165Z,12.20
2017-11-03T17:37:55.969Z,10.40
2017-11-03T17:40:22.734Z,9.77
2017-11-03T17:42:49.538Z,9.40
2017-11-03T17:45:16.351Z,11.60
2017-11-03T17:47:43.231Z,10.03
2017-11-03T17:50:10.082Z,11.57
2017-11-03T17:52:36.938Z,10.90
2017-11-03T17:55:03.742Z,10.80
2017-11-03T17:57:30.591Z,13.07
2017-11-03T17:59:57.431Z,11.87
2017-11-03T18:02:24.244Z,11.00
2017-11-03T18:04:51.075Z,11.40
2017-11-03T18:07:17.917Z,11.20
2017-11-03T18:09:44.743Z,11.67
2017-11-03T18:12:11.577Z,10.50
2017-11-03T18:14:38.521Z,10.80
2017-11-03T18:17:05.366Z,10.67
2017-11-03T18:19:32.238Z,11.83
2017-11-03T18:21:59.032Z,11.17
2017-11-03T18:24:25.862Z,9.67
2017-11-03T18:26:52.718Z,11.70
2017-11-03T18:29:19.551Z,10.90
2017-11-03T18:31:46.391Z,12.37
2017-11-03T18:34:13.262Z,10.00
2017-11-03T18:36:40.080Z,10.40
2017-11-03T18:39:06.883Z,9.30
2017-11-03T18:41:33.719Z,12.00
2017-11-03T18:44:01.062Z,9.97
2017-11-03T18:46:27.886Z,11.50
2017-11-03T18:48:54.709Z,11.00
2017-11-03T18:51:21.471Z,10.60
2017-11-03T18:53:48.242Z,10.90
2017-11-03T18:56:15.064Z,12.43
2017-11-03T18:58:41.865Z,11.03
2017-11-03T19:01:08.631Z,11.80
2017-11-03T19:03:35.450Z,12.23
2017-11-03T19:06:02.338Z,11.47
2017-11-03T19:08:29.151Z,11.00
2017-11-03T19:10:56.007Z,12.80
2017-11-03T19:13:22.885Z,12.83
2017-11-03T19:15:49.690Z,11.03
2017-11-03T19:18:16.568Z,12.60
2017-11-03T19:20:43.369Z,12.80
2017-11-03T19:23:10.150Z,12.60
2017-11-03T19:25:37.018Z,10.90
2017-11-03T19:28:03.820Z,13.50
2017-11-03T19:30:30.648Z,12.47
2017-11-03T19:32:57.477Z,13.13
2017-11-03T19:35:24.411Z,11.10
2017-11-03T19:37:51.213Z,10.70
2017-11-03T19:40:18.055Z,12.53
2017-11-03T19:42:44.852Z,11.07
2017-11-03T19:45:12.005Z,11.87
2017-11-03T19:47:38.843Z,11.70
2017-11-03T19:50:05.634Z,11.23
2017-11-03T19:52:32.445Z,10.77
2017-11-03T19:54:59.250Z,10.50
2017-11-03T19:57:26.115Z,12.27
2017-11-03T19:59:52.877Z,11.90
2017-11-03T20:02:19.709Z,11.37
2017-11-03T20:04:46.510Z,11.70
2017-11-03T20:07:13.288Z,10.83
2017-11-03T20:09:40.137Z,11.83
2017-11-03T20:12:06.952Z,12.27
2017-11-03T20:14:34.571Z,10.40
2017-11-03T20:17:01.500Z,11.57
2017-11-03T20:19:28.327Z,11.43
2017-11-03T20:21:55.112Z,10.70
2017-11-03T20:24:21.962Z,13.27
2017-11-03T20:26:48.819Z,12.20
2017-11-03T20:29:15.625Z,11.07
2017-11-03T20:31:42.481Z,11.90
2017-11-03T20:34:09.286Z,11.80
2017-11-03T20:36:36.107Z,13.63
2017-11-03T20:39:02.999Z,13.40
2017-11-03T20:41:29.804Z,11.37
2017-11-03T20:43:56.593Z,13.90
2017-11-03T20:46:23.441Z,12.50
2017-11-03T20:48:50.223Z,14.40
2017-11-03T20:51:17.016Z,13.47
2017-11-03T20:53:43.848Z,16.20
2017-11-03T20:56:10.691Z,15.40
2017-11-03T20:58:37.533Z,15.07
2017-11-03T21:01:04.375Z,14.90
2017-11-03T21:03:31.218Z,13.30
2017-11-03T21:05:58.262Z,14.40
2017-11-03T21:08:25.159Z,13.23
2017-11-03T21:10:51.998Z,15.07
2017-11-03T21:13:19.486Z,14.43
2017-11-03T21:15:46.302Z,16.17
2017-11-03T21:18:13.088Z,15.73
2017-11-03T21:20:39.856Z,16.00
2017-11-03T21:23:06.680Z,16.87
2017-11-03T21:25:33.518Z,16.23
2017-11-03T21:28:00.309Z,15.40
2017-11-03T21:30:27.140Z,16.47
2017-11-03T21:32:53.951Z,16.20
2017-11-03T21:35:21.031Z,16.40
2017-11-03T21:37:47.847Z,17.03
2017-11-03T21:40:14.646Z,17.30
2017-11-03T21:42:41.477Z,15.87
2017-11-03T21:45:08.341Z,17.87
2017-11-03T21:47:35.125Z,17.10
2017-11-03T21:50:01.897Z,17.40
2017-11-03T21:52:28.749Z,15.33
2017-11-03T21:54:55.590Z,17.83
2017-11-03T21:57:22.405Z,19.27
2017-11-03T21:59:49.252Z,18.37
2017-11-03T22:02:16.385Z,18.87
2017-11-03T22:04:43.268Z,18.50
2017-11-03T22:07:10.106Z,18.10
2017-11-03T22:09:36.953Z,17.67
2017-11-03T22:12:03.774Z,19.80
2017-11-03T22:14:30.740Z,19.87
2017-11-03T22:16:57.558Z,18.73
2017-11-03T22:19:24.368Z,17.83
2017-11-03T22:21:51.204Z,18.60
2017-11-03T22:24:18.050Z,23.00
2017-11-03T22:26:44.857Z,22.10
2017-11-03T22:29:11.695Z,21.30
2017-11-03T22:31:38.507Z,21.47
2017-11-03T22:34:05.313Z,22.43
2017-11-03T22:36:32.148Z,20.10
2017-11-03T22:38:59.672Z,21.57
2017-11-03T22:41:26.468Z,22.17
2017-11-03T22:43:53.307Z,20.60
2017-11-03T22:46:20.094Z,23.47
2017-11-03T22:48:46.855Z,23.63
2017-11-03T22:51:13.703Z,23.30
2017-11-03T22:53:40.535Z,22.47
2017-11-03T22:56:07.315Z,25.83
2017-11-03T22:58:34.145Z,24.13
2017-11-03T23:01:00.942Z,25.57
2017-11-03T23:03:27.726Z,25.50
2017-11-03T23:05:54.543Z,27.40
2017-11-03T23:08:21.339Z,26.30
2017-11-03T23:10:48.104Z,26.80
